sensor_id;sensor_type;location;lat;lon;timestamp;temperature;humidity
31263;DHT22;17892;52.080;9.006;2023-03-26T00:01:29;9.50;99.90
31263;DHT22;17892;52.080;9.006;2023-03-26T00:03:58;9.50;99.90
31263;DHT22;17892;52.080;9.006;2023-03-26T00:06:26;9.50;99.90
31263;DHT22;17892;52.080;9.006;2023-03-26T00:08:54;9.50;99.90
31263;DHT22;17892;52.080;9.006;2023-03-26T00:11:25;9.50;99.90
31263;DHT22;17892;52.080;9.006;2023-03-26T00:13:52;9.50;99.90
31263;DHT22;17892;52.080;9.006;2023-03-26T00:16:21;9.40;99.90
31263;DHT22;17892;52.080;9.006;2023-03-26T00:18:47;9.50;99.90
31263;DHT22;17892;52.080;9.006;2023-03-26T00:21:16;9.50;99.90
31263;DHT22;17892;52.080;9.006;2023-03-26T00:23:43;9.40;99.90
31263;DHT22;17892;52.080;9.006;2023-03-26T00:26:09;9.50;99.90
31263;DHT22;17892;52.080;9.006;2023-03-26T00:28:40;9.50;99.90
31263;DHT22;17892;52.080;9.006;2023-03-26T00:31:10;9.50;99.90
31263;DHT22;17892;52.080;9.006;2023-03-26T00:33:38;9.50;99.90
31263;DHT22;17892;52.080;9.006;2023-03-26T00:36:09;9.50;99.90
31263;DHT22;17892;52.080;9.006;2023-03-26T00:38:41;9.50;99.90
31263;DHT22;17892;52.080;9.006;2023-03-26T00:41:10;9.50;99.90
31263;DHT22;17892;52.080;9.006;2023-03-26T00:43:47;9.50;99.90
31263;DHT22;17892;52.080;9.006;2023-03-26T00:46:15;9.50;99.90
31263;DHT22;17892;52.080;9.006;2023-03-26T00:48:42;9.40;99.90
31263;DHT22;17892;52.080;9.006;2023-03-26T00:51:09;9.40;99.90
31263;DHT22;17892;52.080;9.006;2023-03-26T00:53:36;9.40;99.90
31263;DHT22;17892;52.080;9.006;2023-03-26T00:56:04;9.30;99.90
31263;DHT22;17892;52.080;9.006;2023-03-26T00:58:31;9.30;99.90
31263;DHT22;17892;52.080;9.006;2023-03-26T01:01:00;9.30;99.90
31263;DHT22;17892;52.080;9.006;2023-03-26T01:03:33;9.30;99.90
31263;DHT22;17892;52.080;9.006;2023-03-26T01:06:00;9.30;99.90
31263;DHT22;17892;52.080;9.006;2023-03-26T01:11:21;9.40;99.90
31263;DHT22;17892;52.080;9.006;2023-03-26T01:13:56;9.40;99.90
31263;DHT22;17892;52.080;9.006;2023-03-26T01:22:07;9.40;99.90
31263;DHT22;17892;52.080;9.006;2023-03-26T01:24:38;9.40;99.90
31263;DHT22;17892;52.080;9.006;2023-03-26T01:27:11;9.40;99.90
31263;DHT22;17892;52.080;9.006;2023-03-26T01:29:47;9.40;99.90
31263;DHT22;17892;52.080;9.006;2023-03-26T01:32:23;9.40;99.90
31263;DHT22;17892;52.080;9.006;2023-03-26T01:35:29;9.40;99.90
31263;DHT22;17892;52.080;9.006;2023-03-26T01:38:27;9.40;99.90
31263;DHT22;17892;52.080;9.006;2023-03-26T01:41:23;9.30;99.90
31263;DHT22;17892;52.080;9.006;2023-03-26T01:43:57;9.40;99.90
31263;DHT22;17892;52.080;9.006;2023-03-26T01:46:24;9.30;99.90
31263;DHT22;17892;52.080;9.006;2023-03-26T01:48:51;9.30;99.90
31263;DHT22;17892;52.080;9.006;2023-03-26T01:51:34;9.40;99.90
31263;DHT22;17892;52.080;9.006;2023-03-26T01:54:03;9.40;99.90
31263;DHT22;17892;52.080;9.006;2023-03-26T01:56:39;9.40;99.90
31263;DHT22;17892;52.080;9.006;2023-03-26T02:02:39;9.40;99.90
31263;DHT22;17892;52.080;9.006;2023-03-26T02:05:09;9.50;99.90
31263;DHT22;17892;52.080;9.006;2023-03-26T02:10:39;9.50;99.90
31263;DHT22;17892;52.080;9.006;2023-03-26T02:13:06;9.50;99.90
31263;DHT22;17892;52.080;9.006;2023-03-26T02:15:32;9.50;99.90
31263;DHT22;17892;52.080;9.006;2023-03-26T02:17:58;9.50;99.90
31263;DHT22;17892;52.080;9.006;2023-03-26T02:20:24;9.50;99.90
31263;DHT22;17892;52.080;9.006;2023-03-26T02:22:55;9.50;99.90
31263;DHT22;17892;52.080;9.006;2023-03-26T02:25:21;9.50;99.90
31263;DHT22;17892;52.080;9.006;2023-03-26T02:27:49;9.40;99.90
31263;DHT22;17892;52.080;9.006;2023-03-26T02:30:21;9.40;99.90
31263;DHT22;17892;52.080;9.006;2023-03-26T02:32:50;9.30;99.90
31263;DHT22;17892;52.080;9.006;2023-03-26T02:35:19;9.30;99.90
31263;DHT22;17892;52.080;9.006;2023-03-26T02:37:46;9.30;99.90
31263;DHT22;17892;52.080;9.006;2023-03-26T02:40:16;9.20;99.90
31263;DHT22;17892;52.080;9.006;2023-03-26T02:42:43;9.20;99.90
31263;DHT22;17892;52.080;9.006;2023-03-26T02:45:09;9.10;99.90
31263;DHT22;17892;52.080;9.006;2023-03-26T02:47:35;9.10;99.90
31263;DHT22;17892;52.080;9.006;2023-03-26T02:50:01;9.00;99.90
31263;DHT22;17892;52.080;9.006;2023-03-26T02:52:28;9.00;99.90
31263;DHT22;17892;52.080;9.006;2023-03-26T02:54:54;8.90;99.90
31263;DHT22;17892;52.080;9.006;2023-03-26T02:57:21;8.90;99.90
31263;DHT22;17892;52.080;9.006;2023-03-26T02:59:48;8.80;99.90
31263;DHT22;17892;52.080;9.006;2023-03-26T03:02:15;8.80;99.90
31263;DHT22;17892;52.080;9.006;2023-03-26T03:04:42;8.70;99.90
31263;DHT22;17892;52.080;9.006;2023-03-26T03:07:08;8.70;99.90
31263;DHT22;17892;52.080;9.006;2023-03-26T03:09:38;8.70;99.90
31263;DHT22;17892;52.080;9.006;2023-03-26T03:12:04;8.60;99.90
31263;DHT22;17892;52.080;9.006;2023-03-26T03:14:30;8.50;99.90
31263;DHT22;17892;52.080;9.006;2023-03-26T03:16:56;8.50;99.90
31263;DHT22;17892;52.080;9.006;2023-03-26T03:19:22;8.50;99.90
31263;DHT22;17892;52.080;9.006;2023-03-26T03:21:47;8.50;99.90
31263;DHT22;17892;52.080;9.006;2023-03-26T03:24:13;8.60;99.90
31263;DHT22;17892;52.080;9.006;2023-03-26T03:26:43;8.60;99.90
31263;DHT22;17892;52.080;9.006;2023-03-26T03:29:10;8.70;99.90
31263;DHT22;17892;52.080;9.006;2023-03-26T03:31:37;8.70;99.90
31263;DHT22;17892;52.080;9.006;2023-03-26T03:34:03;8.80;99.90
31263;DHT22;17892;52.080;9.006;2023-03-26T03:36:29;8.80;99.90
31263;DHT22;17892;52.080;9.006;2023-03-26T03:38:54;8.90;99.90
31263;DHT22;17892;52.080;9.006;2023-03-26T03:41:20;9.00;99.90
31263;DHT22;17892;52.080;9.006;2023-03-26T03:43:46;9.00;99.90
31263;DHT22;17892;52.080;9.006;2023-03-26T03:46:11;9.10;99.90
31263;DHT22;17892;52.080;9.006;2023-03-26T03:48:37;9.20;99.90
31263;DHT22;17892;52.080;9.006;2023-03-26T03:51:04;9.20;99.90
31263;DHT22;17892;52.080;9.006;2023-03-26T03:53:30;9.20;99.90
31263;DHT22;17892;52.080;9.006;2023-03-26T03:55:56;9.30;99.90
31263;DHT22;17892;52.080;9.006;2023-03-26T03:58:24;9.30;99.90
31263;DHT22;17892;52.080;9.006;2023-03-26T04:00:53;9.40;99.90
31263;DHT22;17892;52.080;9.006;2023-03-26T04:03:26;9.40;99.90
31263;DHT22;17892;52.080;9.006;2023-03-26T04:05:52;9.40;99.90
31263;DHT22;17892;52.080;9.006;2023-03-26T04:08:20;9.50;99.90
31263;DHT22;17892;52.080;9.006;2023-03-26T04:10:46;9.40;99.90
31263;DHT22;17892;52.080;9.006;2023-03-26T04:13:13;9.50;99.90
31263;DHT22;17892;52.080;9.006;2023-03-26T04:15:40;9.50;99.90
31263;DHT22;17892;52.080;9.006;2023-03-26T04:18:06;9.50;99.90
31263;DHT22;17892;52.080;9.006;2023-03-26T04:20:35;9.50;99.90
31263;DHT22;17892;52.080;9.006;2023-03-26T04:23:03;9.50;99.90
31263;DHT22;17892;52.080;9.006;2023-03-26T04:25:30;9.60;99.90
31263;DHT22;17892;52.080;9.006;2023-03-26T04:27:59;9.60;99.90
31263;DHT22;17892;52.080;9.006;2023-03-26T04:30:26;9.60;99.90
31263;DHT22;17892;52.080;9.006;2023-03-26T04:32:51;9.60;99.90
31263;DHT22;17892;52.080;9.006;2023-03-26T04:35:18;9.60;99.90
31263;DHT22;17892;52.080;9.006;2023-03-26T04:37:44;9.60;99.90
31263;DHT22;17892;52.080;9.006;2023-03-26T04:40:14;9.60;99.90
31263;DHT22;17892;52.080;9.006;2023-03-26T04:42:42;9.60;99.90
31263;DHT22;17892;52.080;9.006;2023-03-26T04:45:13;9.60;99.90
31263;DHT22;17892;52.080;9.006;2023-03-26T04:47:39;9.60;99.90
31263;DHT22;17892;52.080;9.006;2023-03-26T04:50:07;9.60;99.90
31263;DHT22;17892;52.080;9.006;2023-03-26T04:52:34;9.60;99.90
31263;DHT22;17892;52.080;9.006;2023-03-26T04:55:01;9.70;99.90
31263;DHT22;17892;52.080;9.006;2023-03-26T04:57:37;9.70;99.90
31263;DHT22;17892;52.080;9.006;2023-03-26T05:00:05;9.70;99.90
31263;DHT22;17892;52.080;9.006;2023-03-26T05:02:39;9.70;99.90
31263;DHT22;17892;52.080;9.006;2023-03-26T05:05:06;9.70;99.90
31263;DHT22;17892;52.080;9.006;2023-03-26T05:07:32;9.70;99.90
31263;DHT22;17892;52.080;9.006;2023-03-26T05:09:58;9.70;99.90
31263;DHT22;17892;52.080;9.006;2023-03-26T05:12:27;9.70;99.90
31263;DHT22;17892;52.080;9.006;2023-03-26T05:14:54;9.70;99.90
31263;DHT22;17892;52.080;9.006;2023-03-26T05:17:20;9.80;99.90
31263;DHT22;17892;52.080;9.006;2023-03-26T05:19:47;9.80;99.90
31263;DHT22;17892;52.080;9.006;2023-03-26T05:22:12;9.80;99.90
31263;DHT22;17892;52.080;9.006;2023-03-26T05:24:38;9.80;99.90
31263;DHT22;17892;52.080;9.006;2023-03-26T05:27:04;9.80;99.90
31263;DHT22;17892;52.080;9.006;2023-03-26T05:29:30;9.80;99.90
31263;DHT22;17892;52.080;9.006;2023-03-26T05:31:56;9.80;99.90
31263;DHT22;17892;52.080;9.006;2023-03-26T05:34:21;9.80;99.90
31263;DHT22;17892;52.080;9.006;2023-03-26T05:36:51;9.80;99.90
31263;DHT22;17892;52.080;9.006;2023-03-26T05:39:17;9.80;99.90
31263;DHT22;17892;52.080;9.006;2023-03-26T05:41:42;9.80;99.90
31263;DHT22;17892;52.080;9.006;2023-03-26T05:44:08;9.80;99.90
31263;DHT22;17892;52.080;9.006;2023-03-26T05:46:34;9.80;99.90
31263;DHT22;17892;52.080;9.006;2023-03-26T05:49:00;9.90;99.90
31263;DHT22;17892;52.080;9.006;2023-03-26T05:51:25;9.90;99.90
31263;DHT22;17892;52.080;9.006;2023-03-26T05:53:51;9.90;99.90
31263;DHT22;17892;52.080;9.006;2023-03-26T05:56:17;10.00;99.90
31263;DHT22;17892;52.080;9.006;2023-03-26T05:58:43;10.00;99.90
31263;DHT22;17892;52.080;9.006;2023-03-26T06:01:10;10.00;99.90
31263;DHT22;17892;52.080;9.006;2023-03-26T06:03:41;10.10;99.90
31263;DHT22;17892;52.080;9.006;2023-03-26T06:06:15;10.10;99.90
31263;DHT22;17892;52.080;9.006;2023-03-26T06:08:48;10.10;99.90
31263;DHT22;17892;52.080;9.006;2023-03-26T06:11:16;10.10;99.90
31263;DHT22;17892;52.080;9.006;2023-03-26T06:13:43;10.10;99.90
31263;DHT22;17892;52.080;9.006;2023-03-26T06:16:10;10.10;99.90
31263;DHT22;17892;52.080;9.006;2023-03-26T06:18:37;10.20;99.90
31263;DHT22;17892;52.080;9.006;2023-03-26T06:21:04;10.20;99.90
31263;DHT22;17892;52.080;9.006;2023-03-26T06:23:31;10.20;99.90
31263;DHT22;17892;52.080;9.006;2023-03-26T06:25:57;10.20;99.90
31263;DHT22;17892;52.080;9.006;2023-03-26T06:28:22;10.20;99.90
31263;DHT22;17892;52.080;9.006;2023-03-26T06:30:49;10.20;99.90
31263;DHT22;17892;52.080;9.006;2023-03-26T06:33:15;10.30;99.90
31263;DHT22;17892;52.080;9.006;2023-03-26T06:35:41;10.30;99.90
31263;DHT22;17892;52.080;9.006;2023-03-26T06:38:08;10.30;99.90
31263;DHT22;17892;52.080;9.006;2023-03-26T06:40:34;10.40;99.90
31263;DHT22;17892;52.080;9.006;2023-03-26T06:43:00;10.30;99.90
31263;DHT22;17892;52.080;9.006;2023-03-26T06:45:26;10.30;99.90
31263;DHT22;17892;52.080;9.006;2023-03-26T06:47:52;10.40;99.90
31263;DHT22;17892;52.080;9.006;2023-03-26T06:50:18;10.40;99.90
31263;DHT22;17892;52.080;9.006;2023-03-26T06:52:44;10.40;99.90
31263;DHT22;17892;52.080;9.006;2023-03-26T06:55:10;10.40;99.90
31263;DHT22;17892;52.080;9.006;2023-03-26T06:57:36;10.40;99.90
31263;DHT22;17892;52.080;9.006;2023-03-26T07:00:03;10.40;99.90
31263;DHT22;17892;52.080;9.006;2023-03-26T07:02:30;10.30;99.90
31263;DHT22;17892;52.080;9.006;2023-03-26T07:04:56;10.30;99.90
31263;DHT22;17892;52.080;9.006;2023-03-26T07:07:22;10.30;99.90
31263;DHT22;17892;52.080;9.006;2023-03-26T07:09:49;10.30;99.90
31263;DHT22;17892;52.080;9.006;2023-03-26T07:12:15;10.30;99.90
31263;DHT22;17892;52.080;9.006;2023-03-26T07:14:41;10.40;99.90
31263;DHT22;17892;52.080;9.006;2023-03-26T07:17:07;10.30;99.90
31263;DHT22;17892;52.080;9.006;2023-03-26T07:19:32;10.40;99.90
31263;DHT22;17892;52.080;9.006;2023-03-26T07:21:59;10.40;99.90
31263;DHT22;17892;52.080;9.006;2023-03-26T07:24:26;10.40;99.90
31263;DHT22;17892;52.080;9.006;2023-03-26T07:27:05;10.50;99.90
31263;DHT22;17892;52.080;9.006;2023-03-26T07:29:52;10.50;99.90
31263;DHT22;17892;52.080;9.006;2023-03-26T07:32:39;10.60;99.90
31263;DHT22;17892;52.080;9.006;2023-03-26T07:35:29;10.70;99.90
31263;DHT22;17892;52.080;9.006;2023-03-26T07:40:58;10.80;99.90
31263;DHT22;17892;52.080;9.006;2023-03-26T07:46:14;10.90;99.90
31263;DHT22;17892;52.080;9.006;2023-03-26T07:48:42;11.00;99.90
31263;DHT22;17892;52.080;9.006;2023-03-26T07:51:12;11.10;99.90
31263;DHT22;17892;52.080;9.006;2023-03-26T07:53:38;11.10;99.90
31263;DHT22;17892;52.080;9.006;2023-03-26T07:56:32;11.10;99.90
31263;DHT22;17892;52.080;9.006;2023-03-26T07:59:06;11.20;99.90
31263;DHT22;17892;52.080;9.006;2023-03-26T08:16:48;11.90;99.90
31263;DHT22;17892;52.080;9.006;2023-03-26T08:19:46;12.00;99.90
31263;DHT22;17892;52.080;9.006;2023-03-26T08:22:26;12.10;99.90
31263;DHT22;17892;52.080;9.006;2023-03-26T08:28:09;12.20;99.90
31263;DHT22;17892;52.080;9.006;2023-03-26T08:30:40;12.30;99.90
31263;DHT22;17892;52.080;9.006;2023-03-26T08:33:13;12.40;99.90
31263;DHT22;17892;52.080;9.006;2023-03-26T08:35:42;12.40;99.90
31263;DHT22;17892;52.080;9.006;2023-03-26T08:38:13;12.40;99.90
31263;DHT22;17892;52.080;9.006;2023-03-26T08:46:47;12.50;99.90
31263;DHT22;17892;52.080;9.006;2023-03-26T08:49:45;12.50;99.90
31263;DHT22;17892;52.080;9.006;2023-03-26T08:55:55;12.50;99.90
31263;DHT22;17892;52.080;9.006;2023-03-26T09:14:23;12.50;99.90
31263;DHT22;17892;52.080;9.006;2023-03-26T09:39:08;13.10;99.90
31263;DHT22;17892;52.080;9.006;2023-03-26T09:53:29;13.00;99.90
31263;DHT22;17892;52.080;9.006;2023-03-26T10:13:57;12.80;99.90
31263;DHT22;17892;52.080;9.006;2023-03-26T10:16:56;12.80;99.90
31263;DHT22;17892;52.080;9.006;2023-03-26T10:19:55;12.70;99.90
31263;DHT22;17892;52.080;9.006;2023-03-26T10:22:42;12.70;99.90
31263;DHT22;17892;52.080;9.006;2023-03-26T10:25:37;12.70;99.90
31263;DHT22;17892;52.080;9.006;2023-03-26T10:34:52;12.90;99.90
31263;DHT22;17892;52.080;9.006;2023-03-26T10:37:49;12.90;99.90
31263;DHT22;17892;52.080;9.006;2023-03-26T10:52:43;13.50;99.90
31263;DHT22;17892;52.080;9.006;2023-03-26T10:55:21;13.70;99.90
31263;DHT22;17892;52.080;9.006;2023-03-26T10:58:23;13.80;99.90
31263;DHT22;17892;52.080;9.006;2023-03-26T11:01:02;13.90;99.90
31263;DHT22;17892;52.080;9.006;2023-03-26T11:03:52;13.90;99.90
31263;DHT22;17892;52.080;9.006;2023-03-26T11:09:43;13.60;99.90
31263;DHT22;17892;52.080;9.006;2023-03-26T11:12:18;13.50;99.90
31263;DHT22;17892;52.080;9.006;2023-03-26T11:15:19;13.30;99.90
31263;DHT22;17892;52.080;9.006;2023-03-26T11:18:04;13.30;99.90
31263;DHT22;17892;52.080;9.006;2023-03-26T11:20:37;13.20;99.90
31263;DHT22;17892;52.080;9.006;2023-03-26T11:23:34;13.10;99.90
31263;DHT22;17892;52.080;9.006;2023-03-26T11:28:42;13.10;99.90
31263;DHT22;17892;52.080;9.006;2023-03-26T11:31:24;13.00;99.90
31263;DHT22;17892;52.080;9.006;2023-03-26T11:34:12;13.00;99.90
31263;DHT22;17892;52.080;9.006;2023-03-26T11:36:45;13.00;99.90
31263;DHT22;17892;52.080;9.006;2023-03-26T11:39:22;12.90;99.90
31263;DHT22;17892;52.080;9.006;2023-03-26T11:42:05;12.90;99.90
31263;DHT22;17892;52.080;9.006;2023-03-26T11:44:40;12.90;99.90
31263;DHT22;17892;52.080;9.006;2023-03-26T11:47:09;12.90;99.90
31263;DHT22;17892;52.080;9.006;2023-03-26T11:49:37;12.80;99.90
31263;DHT22;17892;52.080;9.006;2023-03-26T11:52:04;12.80;99.90
31263;DHT22;17892;52.080;9.006;2023-03-26T11:54:31;12.80;99.90
31263;DHT22;17892;52.080;9.006;2023-03-26T11:57:15;12.70;99.90
31263;DHT22;17892;52.080;9.006;2023-03-26T12:00:02;12.80;99.90
31263;DHT22;17892;52.080;9.006;2023-03-26T12:02:38;12.70;99.90
31263;DHT22;17892;52.080;9.006;2023-03-26T12:05:12;12.60;99.90
31263;DHT22;17892;52.080;9.006;2023-03-26T12:07:54;12.60;99.90
31263;DHT22;17892;52.080;9.006;2023-03-26T12:10:29;12.60;99.90
31263;DHT22;17892;52.080;9.006;2023-03-26T12:13:01;12.60;99.90
31263;DHT22;17892;52.080;9.006;2023-03-26T12:15:29;12.50;99.90
31263;DHT22;17892;52.080;9.006;2023-03-26T12:17:57;12.50;99.90
31263;DHT22;17892;52.080;9.006;2023-03-26T12:23:00;12.50;99.90
31263;DHT22;17892;52.080;9.006;2023-03-26T12:25:35;12.50;99.90
31263;DHT22;17892;52.080;9.006;2023-03-26T12:30:39;12.60;99.90
31263;DHT22;17892;52.080;9.006;2023-03-26T12:33:28;12.60;99.90
31263;DHT22;17892;52.080;9.006;2023-03-26T12:36:24;12.70;99.90
31263;DHT22;17892;52.080;9.006;2023-03-26T12:38:53;12.80;99.90
31263;DHT22;17892;52.080;9.006;2023-03-26T12:41:35;12.80;99.90
31263;DHT22;17892;52.080;9.006;2023-03-26T12:44:29;12.80;99.90
31263;DHT22;17892;52.080;9.006;2023-03-26T12:47:09;12.70;99.90
31263;DHT22;17892;52.080;9.006;2023-03-26T12:49:39;12.60;99.90
31263;DHT22;17892;52.080;9.006;2023-03-26T12:55:21;12.20;99.90
31263;DHT22;17892;52.080;9.006;2023-03-26T12:58:16;11.90;99.90
31263;DHT22;17892;52.080;9.006;2023-03-26T13:03:58;11.40;99.90
31263;DHT22;17892;52.080;9.006;2023-03-26T13:06:53;11.20;99.90
31263;DHT22;17892;52.080;9.006;2023-03-26T13:29:47;10.30;99.90
31263;DHT22;17892;52.080;9.006;2023-03-26T13:33:14;10.30;99.90
31263;DHT22;17892;52.080;9.006;2023-03-26T13:41:08;10.20;99.90
31263;DHT22;17892;52.080;9.006;2023-03-26T13:44:19;10.20;99.90
31263;DHT22;17892;52.080;9.006;2023-03-26T13:49:54;10.20;99.90
31263;DHT22;17892;52.080;9.006;2023-03-26T13:52:41;10.20;99.90
31263;DHT22;17892;52.080;9.006;2023-03-26T13:57:59;10.30;99.90
31263;DHT22;17892;52.080;9.006;2023-03-26T14:00:41;10.30;99.90
31263;DHT22;17892;52.080;9.006;2023-03-26T14:03:38;10.30;99.90
31263;DHT22;17892;52.080;9.006;2023-03-26T14:09:28;10.30;99.90
31263;DHT22;17892;52.080;9.006;2023-03-26T14:17:20;10.50;99.90
31263;DHT22;17892;52.080;9.006;2023-03-26T14:26:40;10.50;99.90
31263;DHT22;17892;52.080;9.006;2023-03-26T14:33:01;10.50;99.90
31263;DHT22;17892;52.080;9.006;2023-03-26T14:36:21;10.60;99.90
31263;DHT22;17892;52.080;9.006;2023-03-26T14:39:10;10.60;99.90
31263;DHT22;17892;52.080;9.006;2023-03-26T14:42:09;10.60;99.90
31263;DHT22;17892;52.080;9.006;2023-03-26T14:44:55;10.50;99.90
31263;DHT22;17892;52.080;9.006;2023-03-26T14:47:55;10.40;99.90
31263;DHT22;17892;52.080;9.006;2023-03-26T14:53:27;10.20;99.90
31263;DHT22;17892;52.080;9.006;2023-03-26T15:01:37;10.00;99.90
31263;DHT22;17892;52.080;9.006;2023-03-26T15:25:20;9.50;99.90
31263;DHT22;17892;52.080;9.006;2023-03-26T15:28:24;9.50;99.90
31263;DHT22;17892;52.080;9.006;2023-03-26T15:37:16;9.30;99.90
31263;DHT22;17892;52.080;9.006;2023-03-26T15:43:12;9.20;99.90
31263;DHT22;17892;52.080;9.006;2023-03-26T15:45:49;9.10;99.90
31263;DHT22;17892;52.080;9.006;2023-03-26T15:48:28;9.00;99.90
31263;DHT22;17892;52.080;9.006;2023-03-26T16:18:36;8.90;99.90
31263;DHT22;17892;52.080;9.006;2023-03-26T16:40:34;8.70;99.90
31263;DHT22;17892;52.080;9.006;2023-03-26T16:52:31;8.60;99.90
31263;DHT22;17892;52.080;9.006;2023-03-26T16:58:13;8.50;99.90
31263;DHT22;17892;52.080;9.006;2023-03-26T17:01:30;8.50;99.90
31263;DHT22;17892;52.080;9.006;2023-03-26T17:03:54;8.50;99.90
31263;DHT22;17892;52.080;9.006;2023-03-26T17:09:12;8.40;99.90
31263;DHT22;17892;52.080;9.006;2023-03-26T17:14:42;8.40;99.90
31263;DHT22;17892;52.080;9.006;2023-03-26T17:20:28;8.40;99.90
31263;DHT22;17892;52.080;9.006;2023-03-26T17:23:29;8.40;99.90
31263;DHT22;17892;52.080;9.006;2023-03-26T17:32:03;8.30;99.90
31263;DHT22;17892;52.080;9.006;2023-03-26T17:42:29;8.10;99.90
31263;DHT22;17892;52.080;9.006;2023-03-26T17:47:52;8.10;99.90
31263;DHT22;17892;52.080;9.006;2023-03-26T17:53:26;8.00;99.90
31263;DHT22;17892;52.080;9.006;2023-03-26T17:55:57;7.90;99.90
31263;DHT22;17892;52.080;9.006;2023-03-26T17:58:45;7.90;99.90
31263;DHT22;17892;52.080;9.006;2023-03-26T18:01:37;7.90;99.90
31263;DHT22;17892;52.080;9.006;2023-03-26T18:04:14;7.80;99.90
31263;DHT22;17892;52.080;9.006;2023-03-26T18:09:36;7.80;99.90
31263;DHT22;17892;52.080;9.006;2023-03-26T18:18:30;7.80;99.90
31263;DHT22;17892;52.080;9.006;2023-03-26T18:21:00;7.80;99.90
31263;DHT22;17892;52.080;9.006;2023-03-26T18:23:40;7.70;99.90
31263;DHT22;17892;52.080;9.006;2023-03-26T18:26:18;7.70;99.90
31263;DHT22;17892;52.080;9.006;2023-03-26T18:29:24;7.70;99.90
31263;DHT22;17892;52.080;9.006;2023-03-26T18:32:02;7.70;99.90
31263;DHT22;17892;52.080;9.006;2023-03-26T18:34:52;7.70;99.90
31263;DHT22;17892;52.080;9.006;2023-03-26T18:37:27;7.70;99.90
31263;DHT22;17892;52.080;9.006;2023-03-26T18:40:06;7.70;99.90
31263;DHT22;17892;52.080;9.006;2023-03-26T18:42:40;7.60;99.90
31263;DHT22;17892;52.080;9.006;2023-03-26T18:48:07;7.60;99.90
31263;DHT22;17892;52.080;9.006;2023-03-26T18:50:39;7.50;99.90
31263;DHT22;17892;52.080;9.006;2023-03-26T18:53:13;7.50;99.90
31263;DHT22;17892;52.080;9.006;2023-03-26T18:55:42;7.40;99.90
31263;DHT22;17892;52.080;9.006;2023-03-26T19:01:05;7.30;99.90
31263;DHT22;17892;52.080;9.006;2023-03-26T19:03:38;7.30;99.90
31263;DHT22;17892;52.080;9.006;2023-03-26T19:06:09;7.20;99.90
31263;DHT22;17892;52.080;9.006;2023-03-26T19:08:38;7.20;99.90
31263;DHT22;17892;52.080;9.006;2023-03-26T19:11:07;7.10;99.90
31263;DHT22;17892;52.080;9.006;2023-03-26T19:13:36;7.10;99.90
31263;DHT22;17892;52.080;9.006;2023-03-26T19:16:24;7.00;99.90
31263;DHT22;17892;52.080;9.006;2023-03-26T19:18:52;7.00;99.90
31263;DHT22;17892;52.080;9.006;2023-03-26T19:21:19;6.90;99.90
31263;DHT22;17892;52.080;9.006;2023-03-26T19:23:49;6.80;99.90
31263;DHT22;17892;52.080;9.006;2023-03-26T19:26:16;6.80;99.90
31263;DHT22;17892;52.080;9.006;2023-03-26T19:28:46;6.80;99.90
31263;DHT22;17892;52.080;9.006;2023-03-26T19:33:45;6.70;99.90
31263;DHT22;17892;52.080;9.006;2023-03-26T19:36:23;6.70;99.90
31263;DHT22;17892;52.080;9.006;2023-03-26T19:38:53;6.60;99.90
31263;DHT22;17892;52.080;9.006;2023-03-26T19:41:22;6.50;99.90
31263;DHT22;17892;52.080;9.006;2023-03-26T19:43:54;6.50;99.90
31263;DHT22;17892;52.080;9.006;2023-03-26T19:46:23;6.40;99.90
31263;DHT22;17892;52.080;9.006;2023-03-26T19:48:52;6.40;99.90
31263;DHT22;17892;52.080;9.006;2023-03-26T19:51:35;6.30;99.90
31263;DHT22;17892;52.080;9.006;2023-03-26T19:54:10;6.20;99.90
31263;DHT22;17892;52.080;9.006;2023-03-26T19:56:38;6.20;99.90
31263;DHT22;17892;52.080;9.006;2023-03-26T19:59:04;6.10;99.90
31263;DHT22;17892;52.080;9.006;2023-03-26T20:01:30;6.10;99.90
31263;DHT22;17892;52.080;9.006;2023-03-26T20:04:02;6.00;99.90
31263;DHT22;17892;52.080;9.006;2023-03-26T20:06:31;6.00;99.90
31263;DHT22;17892;52.080;9.006;2023-03-26T20:08:58;5.90;99.90
31263;DHT22;17892;52.080;9.006;2023-03-26T20:11:35;5.90;99.90
31263;DHT22;17892;52.080;9.006;2023-03-26T20:14:21;5.80;99.90
31263;DHT22;17892;52.080;9.006;2023-03-26T20:16:50;5.70;99.90
31263;DHT22;17892;52.080;9.006;2023-03-26T20:19:16;5.70;99.90
31263;DHT22;17892;52.080;9.006;2023-03-26T20:21:42;5.60;99.90
31263;DHT22;17892;52.080;9.006;2023-03-26T20:24:11;5.50;99.90
31263;DHT22;17892;52.080;9.006;2023-03-26T20:26:39;5.50;99.90
31263;DHT22;17892;52.080;9.006;2023-03-26T20:29:05;5.50;99.90
31263;DHT22;17892;52.080;9.006;2023-03-26T20:31:30;5.40;99.90
31263;DHT22;17892;52.080;9.006;2023-03-26T20:33:56;5.30;99.90
31263;DHT22;17892;52.080;9.006;2023-03-26T20:36:22;5.30;99.90
31263;DHT22;17892;52.080;9.006;2023-03-26T20:38:47;5.20;99.90
31263;DHT22;17892;52.080;9.006;2023-03-26T20:41:14;5.20;99.90
31263;DHT22;17892;52.080;9.006;2023-03-26T20:43:43;5.10;99.90
31263;DHT22;17892;52.080;9.006;2023-03-26T20:46:16;5.10;99.90
31263;DHT22;17892;52.080;9.006;2023-03-26T20:48:46;5.10;99.90
31263;DHT22;17892;52.080;9.006;2023-03-26T20:51:14;5.00;99.90
31263;DHT22;17892;52.080;9.006;2023-03-26T20:53:41;5.00;99.90
31263;DHT22;17892;52.080;9.006;2023-03-26T20:56:13;5.00;99.90
31263;DHT22;17892;52.080;9.006;2023-03-26T20:58:42;5.00;99.90
31263;DHT22;17892;52.080;9.006;2023-03-26T21:01:10;5.00;99.90
31263;DHT22;17892;52.080;9.006;2023-03-26T21:03:37;4.90;99.90
31263;DHT22;17892;52.080;9.006;2023-03-26T21:06:05;4.90;99.90
31263;DHT22;17892;52.080;9.006;2023-03-26T21:08:38;4.90;99.90
31263;DHT22;17892;52.080;9.006;2023-03-26T21:11:18;4.90;99.90
31263;DHT22;17892;52.080;9.006;2023-03-26T21:14:00;4.90;99.90
31263;DHT22;17892;52.080;9.006;2023-03-26T21:16:49;4.80;99.90
31263;DHT22;17892;52.080;9.006;2023-03-26T21:19:16;4.80;99.90
31263;DHT22;17892;52.080;9.006;2023-03-26T21:30:18;4.80;99.90
31263;DHT22;17892;52.080;9.006;2023-03-26T21:32:45;4.70;99.90
31263;DHT22;17892;52.080;9.006;2023-03-26T21:35:12;4.70;99.90
31263;DHT22;17892;52.080;9.006;2023-03-26T21:37:40;4.70;99.90
31263;DHT22;17892;52.080;9.006;2023-03-26T21:40:10;4.70;99.90
31263;DHT22;17892;52.080;9.006;2023-03-26T21:42:41;4.70;99.90
31263;DHT22;17892;52.080;9.006;2023-03-26T21:45:09;4.70;99.90
31263;DHT22;17892;52.080;9.006;2023-03-26T21:47:35;4.70;99.90
31263;DHT22;17892;52.080;9.006;2023-03-26T21:50:02;4.70;99.90
31263;DHT22;17892;52.080;9.006;2023-03-26T21:52:29;4.70;99.90
31263;DHT22;17892;52.080;9.006;2023-03-26T21:54:57;4.70;99.90
31263;DHT22;17892;52.080;9.006;2023-03-26T22:00:28;4.70;99.90
31263;DHT22;17892;52.080;9.006;2023-03-26T22:06:02;4.70;99.90
31263;DHT22;17892;52.080;9.006;2023-03-26T22:08:37;4.70;99.90
31263;DHT22;17892;52.080;9.006;2023-03-26T22:11:07;4.70;99.90
31263;DHT22;17892;52.080;9.006;2023-03-26T22:13:35;4.70;99.90
31263;DHT22;17892;52.080;9.006;2023-03-26T22:16:02;4.60;99.90
31263;DHT22;17892;52.080;9.006;2023-03-26T22:18:29;4.70;99.90